AirNav   Air Wisconsin pilot careers
 
 435 users online  

01MO Highway Patrol Troop C Headquarters Heliport
Town And Country, Missouri, USA

GOING TO TOWN AND COUNTRY?


FAA INFORMATION EFFECTIVE 03 JANUARY 2019

Location

FAA Identifier: 01MO
Lat/Long: 38-38-30.1890N / 090-29-03.4330W
38-38.503150N / 090-29.057217W
38.6417192 / -90.4842869
(estimated)
Elevation: 575 ft. / 175 m (estimated)
Variation: 02E (1985)
From city: 2 miles W of TOWN AND COUNTRY, MO
Time zone: UTC -6 (UTC -5 during Daylight Saving Time)
Zip code: 63141

Heliport Operations

Heliport use: Private use. Permission required prior to landing
Control tower: no
ARTCC: KANSAS CITY CENTER
FSS: SAINT LOUIS FLIGHT SERVICE STATION
Attendance: CONTINUOUS
Wind indicator: yes
Segmented circle: no

Heliport Communications

UNICOM: 122.95
WX ASOS at SUS (8 nm W): 134.8 (314-890-7255)
WX ASOS at STL (8 nm NE): PHONE 314-890-4790
WX ASOS at CPS (16 nm E): PHONE 618-332-0001
WX ASOS at SET (17 nm N): 118.075 (636-250-4590)

Nearby radio navigation aids

VOR radial/distance  VOR name  Freq  Var
CSXr221/8.8CARDINAL VOR/DME116.4500E
STLr179/13.1ST LOUIS VORTAC117.4001E
FTZr093/23.0FORISTELL VORTAC110.8005E
TOYr254/27.1TROY VORTAC116.0004E

 
NDB name  Hdg/Dist  Freq  Var  ID
EAVES127/3.622701WFZ ..-. --..
OBLIO184/9.533801WLM .-.. --
ZUMAY229/13.040401WST ... -
SNOOP090/13.232601WSU ... ..-
CIVIC MEMORIAL234/25.026301WCVM -.-. ...- --

Heliport Services

Airframe service: NONE
Powerplant service: NONE

Runway Information

Helipad H1

Dimensions: 75 x 75 ft. / 23 x 23 m
Surface: concrete
Latitude: 38-38.503167N
Longitude: 090-29.057167W
Elevation: 575.0 ft.
Traffic pattern: leftleft

Heliport Ownership and Management from official FAA records

Ownership: Privately-owned
Owner: CPT D E BUSCHMANN
599 SOUTH MASON ROAD
ST LOUIS, MO 63141
Phone 573-434-5500
Manager: SGT J W RHODUS
599 SOUTH MASON ROAD
ST LOUIS, MO 63141
Phone 573-340-4034

Heliport Operational Statistics

Aircraft based on the field: 1
Helicopters: 1
    

Additional Remarks

A52-H1 LGTD/MARKED-300' TWR & PATROL BLDG. SE OF PAD.
FOR CD CTC ST LOUIS APCH AT 314-890-1018.

Instrument Procedures

There are no published instrument procedures at 01MO.

Some nearby airports with instrument procedures:

1H0 - Creve Coeur Airport (5 nm N)
KSUS - Spirit of St Louis Airport (8 nm W)
KSTL - St Louis Lambert International Airport (8 nm NE)
KCPS - St Louis Downtown Airport (16 nm E)
KSET - St Charles County Smartt Airport (17 nm N)
 
Loc | Ops | Rwys | IFR | FBO | Links
Com | Nav | Svcs | Stats | Notes

Kansas City Aviation Department
 
Area around 01MO (Highway Patrol Troop C Headquarters Heliport)
 
Road maps at: MapQuest Bing Google
 
Aerial photo
No photo
 
Sectional chart

 
Airport distance calculator
Flying to Highway Patrol Troop C Headquarters Heliport? Find the distance to fly.

From to 01MO

Sunrise and sunset
Times for 16-Jan-2019
 Local
(UTC-6)
 Zulu
(UTC)
Morning civil twilight06:5012:50
Sunrise07:1913:19
Sunset17:0523:05
Evening civil twilight17:3423:34

Current date and time
Zulu (UTC)  16-Jan-2019 07:12:10
Local (UTC-6)  16-Jan-2019 01:12:10
 
METAR
KSUS 
8nm W 
160654Z AUTO 00000KT 7SM CLR 01/M01 A3016 RMK AO2 SLP222 T00061006
KSTL 
9nm NE 
160651Z 20004KT 7SM SCT007 OVC024 02/00 A3017 RMK AO2 SLP225 T00170000
KCPS 
16nm E 
160653Z AUTO 00000KT 10SM CLR 01/M01 A3018 RMK AO2 SLP223 T00111006
KSET 
18nm N 
160654Z AUTO 23004KT 5SM BR BKN008 OVC023 01/01 A3017 RMK AO2 CIG 008V011 SLP218 T00110006
TAF
KSUS 
8nm W 
160520Z 1606/1706 22008KT P6SM OVC009 TEMPO 1606/1607 SCT009 BKN250 FM160700 24005KT 4SM -DZ BR BKN007 FM161000 27005KT 2SM -FZDZ BR OVC003 FM161400 30005KT 2SM -DZ BR OVC004 FM161600 33005KT P6SM OVC005 FM162000 05004KT P6SM OVC006 FM170000 08006KT P6SM OVC007
KSTL 
9nm NE 
160520Z 1606/1712 22008KT P6SM OVC008 TEMPO 1606/1607 SCT008 BKN250 FM160700 24005KT 4SM -DZ BR BKN007 FM161000 27005KT 2SM -FZDZ BR OVC003 FM161400 30005KT 2SM -DZ BR OVC004 FM161600 33005KT P6SM OVC005 FM162000 05004KT P6SM OVC006 FM170000 08006KT P6SM OVC007 FM170700 11005KT 5SM -RA OVC007
KCPS 
16nm E 
160520Z 1606/1706 22006KT P6SM OVC009 TEMPO 1606/1608 SCT009 BKN250 FM160800 24005KT 4SM -DZ BR BKN007 FM161000 27005KT 2SM -FZDZ BR OVC003 FM161400 30005KT 2SM -DZ BR OVC004 FM161600 33005KT P6SM OVC005 FM162000 05004KT P6SM OVC006 FM170000 08006KT P6SM OVC007
NOTAMs
Click for the latest NOTAMs
NOTAMs are issued by the DoD/FAA and will open in a separate window not controlled by AirNav.

 

 
 

Would you like to see your business listed on this page?

 If your business provides an interesting product or service to pilots, flight crews, aircraft, or users of the Highway Patrol Troop C Headquarters Heliport, you should consider listing it here.  To start the listing process, click on the button below
 
Add a business
 

Other Pages about Highway Patrol Troop C Headquarters Heliport

Update a link
 
Copyright © AirNav, LLC. All rights reserved. Privacy Policy  Contact